Time;durP1;ratioP1;P1;durP2;ratioP2;P2;SDS_P1;SDS_P2;PMS_P1;PMS_P2;Temp;Humidity;BMP_temperature;BMP_pressure;BME280_temperature;BME280_humidity;BME280_pressure;Samples;Min_cycle;Max_cycle;Signal;HPM_P1;HPM_P2
2023/03/29 00:01:46;;;;;;;5.95;2.65;;;;;;;4.96;86.15;101584.69;4971853;28;20031;-81
2023/03/29 00:04:12;;;;;;;4.22;2.40;;;;;;;4.93;86.71;101580.25;4992101;28;20773;-81
2023/03/29 00:06:38;;;;;;;5.13;2.92;;;;;;;4.95;86.16;101578.41;4986930;28;20045;-81
2023/03/29 00:09:04;;;;;;;6.10;2.95;;;;;;;4.95;86.31;101585.63;4988213;28;20026;-80
2023/03/29 00:11:30;;;;;;;3.92;2.45;;;;;;;4.96;86.91;101579.28;4986251;28;20038;-81
2023/03/29 00:13:56;;;;;;;4.22;2.42;;;;;;;4.96;86.87;101571.19;4987785;28;20545;-81
2023/03/29 00:16:21;;;;;;;5.10;2.53;;;;;;;4.98;86.54;101563.91;4986935;28;20061;-81
2023/03/29 00:18:47;;;;;;;7.95;2.80;;;;;;;4.98;86.82;101561.22;5003824;28;20068;-81
2023/03/29 00:21:12;;;;;;;4.75;2.88;;;;;;;5.00;86.73;101549.44;4986941;28;20023;-80
2023/03/29 00:23:37;;;;;;;4.03;2.83;;;;;;;5.00;86.97;101553.97;4971425;28;20069;-81
2023/03/29 00:26:03;;;;;;;4.47;3.00;;;;;;;5.00;86.90;101553.97;4986654;28;20124;-81
2023/03/29 00:28:30;;;;;;;5.47;3.00;;;;;;;5.01;86.68;101553.91;4986849;28;20034;-81
2023/03/29 00:31:04;;;;;;;6.35;3.03;;;;;;;5.00;87.16;101543.19;4980301;28;20093;-81
2023/03/29 00:33:30;;;;;;;6.35;2.90;;;;;;;5.06;86.43;101551.03;4991027;28;20046;-81
2023/03/29 00:35:55;;;;;;;3.78;2.65;;;;;;;5.04;86.27;101532.22;5009088;28;20140;-81
2023/03/29 00:38:21;;;;;;;5.68;3.10;;;;;;;5.06;87.31;101540.25;5010409;28;20044;-81
2023/03/29 00:40:46;;;;;;;3.30;2.78;;;;;;;5.05;87.89;101538.50;4993302;28;20033;-81
2023/03/29 00:43:13;;;;;;;6.35;3.03;;;;;;;5.08;88.33;101547.34;4989693;28;20038;-81
2023/03/29 00:45:38;;;;;;;4.57;3.00;;;;;;;5.08;87.43;101535.66;5009283;28;20034;-81
2023/03/29 00:48:14;;;;;;;4.05;2.42;;;;;;;5.10;87.87;101544.59;4977483;28;20463;-81
2023/03/29 00:50:46;;;;;;;7.70;3.08;;;;;;;5.11;88.49;101543.63;4987167;28;20101;-80
2023/03/29 00:53:33;;;;;;;3.95;2.60;;;;;;;5.12;87.62;101535.47;4973767;28;20065;-81
2023/03/29 00:56:23;;;;;;;5.07;3.25;;;;;;;5.13;87.31;101539.06;4995082;28;20041;-81
2023/03/29 00:58:57;;;;;;;5.60;2.85;;;;;;;5.16;86.91;101535.38;5009957;28;20038;-81
2023/03/29 01:01:36;;;;;;;5.25;3.05;;;;;;;5.15;87.88;101515.63;5008187;28;20093;-80
2023/03/29 01:04:19;;;;;;;4.78;2.70;;;;;;;5.17;86.93;101521.81;5019372;28;20508;-81
2023/03/29 01:06:51;;;;;;;5.57;2.88;;;;;;;5.16;87.52;101511.97;5006307;28;20038;-80
2023/03/29 01:09:20;;;;;;;7.90;2.90;;;;;;;5.20;87.18;101512.72;4989637;28;20092;-81
2023/03/29 01:11:52;;;;;;;5.43;2.55;;;;;;;5.21;88.13;101517.19;4983796;28;20026;-80
2023/03/29 01:14:27;;;;;;;4.93;2.85;;;;;;;5.26;88.53;101520.56;5007453;28;20026;-81
2023/03/29 01:16:53;;;;;;;5.13;2.55;;;;;;;5.27;89.16;101519.63;4991132;28;20046;-81
2023/03/29 01:19:21;;;;;;;15.38;4.72;;;;;;;5.26;87.92;101524.16;5002141;28;20347;-81
2023/03/29 01:22:02;;;;;;;5.68;3.00;;;;;;;5.27;88.50;101520.53;4988857;28;20116;-81
2023/03/29 01:25:12;;;;;;;5.85;2.97;;;;;;;5.29;88.79;101515.06;4989362;28;20034;-81
2023/03/29 01:27:48;;;;;;;5.68;2.95;;;;;;;5.28;89.27;101503.41;5008085;28;20030;-80
2023/03/29 01:30:21;;;;;;;6.25;2.42;;;;;;;5.27;89.89;101498.94;4993124;28;20038;-81
2023/03/29 01:32:54;;;;;;;7.10;2.75;;;;;;;5.31;89.64;101502.38;5009144;28;20401;-81
2023/03/29 01:35:45;;;;;;;6.72;2.95;;;;;;;5.33;89.50;101500.53;4993696;28;20091;-81
2023/03/29 01:38:24;;;;;;;12.43;2.78;;;;;;;5.31;90.23;101481.69;4989252;28;20038;-81
2023/03/29 01:40:50;;;;;;;5.82;2.60;;;;;;;5.33;90.02;101481.63;4988121;28;20040;-81
2023/03/29 01:43:30;;;;;;;5.95;2.92;;;;;;;5.35;90.62;101482.44;4989976;28;20117;-81
2023/03/29 01:46:02;;;;;;;5.78;2.70;;;;;;;5.35;90.89;101482.44;4990113;28;20065;-80
2023/03/29 01:48:50;;;;;;;5.45;2.78;;;;;;;5.35;91.03;101480.63;4988845;28;20235;-80
2023/03/29 01:51:25;;;;;;;6.00;3.03;;;;;;;5.38;90.36;101475.09;4953566;28;20054;-81
2023/03/29 01:54:01;;;;;;;5.28;2.95;;;;;;;5.39;90.37;101481.38;4953430;28;20070;-80
2023/03/29 01:56:31;;;;;;;3.88;2.85;;;;;;;5.36;90.81;101466.22;4996682;28;20188;-81
2023/03/29 01:59:02;;;;;;;4.30;2.30;;;;;;;5.37;91.19;101465.25;5005207;28;20720;-81
2023/03/29 02:01:33;;;;;;;5.78;3.33;;;;;;;5.35;91.70;101453.63;4988343;28;20685;-81
2023/03/29 02:04:02;;;;;;;4.80;2.88;;;;;;;5.38;92.05;101467.00;4956536;28;20473;-81
2023/03/29 02:06:32;;;;;;;8.85;2.88;;;;;;;5.37;92.25;101454.47;4973658;28;20026;-81
2023/03/29 02:08:59;;;;;;;8.60;3.00;;;;;;;5.38;92.54;101453.53;4989783;28;20153;-81
2023/03/29 02:11:28;;;;;;;4.88;2.72;;;;;;;5.38;93.37;101444.56;4988516;28;20100;-81
2023/03/29 02:13:57;;;;;;;6.13;2.75;;;;;;;5.34;93.49;101440.22;4973203;28;20049;-81
2023/03/29 02:16:22;;;;;;;4.60;2.58;;;;;;;5.35;92.57;101436.56;4990327;28;20109;-81
2023/03/29 02:18:51;;;;;;;4.97;2.67;;;;;;;5.35;92.34;101431.19;4971161;28;20129;-81
2023/03/29 02:21:29;;;;;;;8.35;2.80;;;;;;;5.38;92.77;101436.47;4989012;28;20038;-81
2023/03/29 02:23:58;;;;;;;5.40;2.92;;;;;;;5.39;93.07;101432.81;4990221;28;20065;-81
2023/03/29 02:26:23;;;;;;;5.82;2.53;;;;;;;5.40;92.95;101428.28;4987924;28;20034;-81
2023/03/29 02:28:50;;;;;;;5.43;3.20;;;;;;;5.37;93.09;101427.50;4973258;28;20034;-81
2023/03/29 02:31:23;;;;;;;5.28;2.75;;;;;;;5.43;93.06;101428.16;4986018;28;20115;-81
2023/03/29 02:33:55;;;;;;;3.72;2.08;;;;;;;5.42;93.49;101429.13;4989693;28;20423;-81
2023/03/29 02:36:57;;;;;;;7.53;2.92;;;;;;;5.37;92.37;101422.09;4988850;28;20053;-81
2023/03/29 02:39:25;;;;;;;4.63;3.33;;;;;;;5.41;92.58;101413.84;4968077;28;20141;-81
2023/03/29 02:41:52;;;;;;;5.65;2.80;;;;;;;5.42;92.89;101410.25;4986781;28;20121;-81
2023/03/29 02:44:28;;;;;;;6.82;3.15;;;;;;;5.42;93.18;101413.81;4972208;28;20026;-81
2023/03/29 02:46:56;;;;;;;6.75;2.63;;;;;;;5.43;91.89;101410.16;4992921;28;20041;-81
2023/03/29 02:49:22;;;;;;;6.05;3.38;;;;;;;5.47;91.21;101408.22;4984572;28;20054;-81
2023/03/29 02:51:52;;;;;;;7.70;3.42;;;;;;;5.48;91.24;101394.66;4987440;28;20166;-81
2023/03/29 02:54:24;;;;;;;5.82;2.90;;;;;;;5.51;91.53;101402.63;4971971;28;20072;-81
2023/03/29 02:56:56;;;;;;;4.55;2.83;;;;;;;5.52;91.45;101387.31;4967118;28;20134;-81
2023/03/29 02:59:21;;;;;;;5.63;2.72;;;;;;;5.51;90.49;101391.84;4983236;28;20039;-80
2023/03/29 03:01:48;;;;;;;6.57;2.83;;;;;;;5.54;90.53;101382.72;4971394;28;20041;-81
2023/03/29 03:04:14;;;;;;;5.38;2.70;;;;;;;5.57;90.57;101396.09;4972144;28;20109;-81
2023/03/29 03:06:40;;;;;;;6.50;2.92;;;;;;;5.59;90.42;101388.78;4987963;28;20185;-81
2023/03/29 03:09:08;;;;;;;3.90;2.70;;;;;;;5.57;90.07;101393.38;4972803;28;20054;-81
2023/03/29 03:11:36;;;;;;;9.40;3.60;;;;;;;5.59;90.48;101394.19;4987009;28;20034;-81
2023/03/29 03:14:01;;;;;;;7.78;2.60;;;;;;;5.61;89.95;101384.22;4987917;28;20042;-81
2023/03/29 03:16:27;;;;;;;4.20;2.90;;;;;;;5.64;88.86;101389.47;4971247;28;20026;-81
2023/03/29 03:18:54;;;;;;;6.45;2.70;;;;;;;5.66;88.70;101381.31;4989400;28;20035;-81
2023/03/29 03:21:21;;;;;;;5.32;2.38;;;;;;;5.65;89.29;101375.03;4987833;28;20141;-81
2023/03/29 03:23:47;;;;;;;2.85;2.28;;;;;;;5.69;88.92;101378.47;4988041;28;20034;-81
2023/03/29 03:26:14;;;;;;;3.25;2.53;;;;;;;5.69;89.02;101382.06;4988935;28;20042;-81
2023/03/29 03:28:41;;;;;;;5.82;2.85;;;;;;;5.68;88.15;101368.63;4976001;28;20073;-81
2023/03/29 03:31:12;;;;;;;5.30;2.53;;;;;;;5.71;88.15;101365.78;4975038;28;20034;-81
2023/03/29 03:33:57;;;;;;;4.20;2.65;;;;;;;5.73;87.96;101372.88;4975444;28;20375;-81
2023/03/29 03:36:34;;;;;;;6.03;2.60;;;;;;;5.72;87.60;101363.03;4990125;28;20040;-81
2023/03/29 03:39:01;;;;;;;3.40;2.28;;;;;;;5.76;87.75;101375.44;4990280;28;20030;-81
2023/03/29 03:41:27;;;;;;;5.07;2.72;;;;;;;5.73;88.00;101372.88;4988710;28;20038;-81
2023/03/29 03:43:52;;;;;;;9.13;2.65;;;;;;;5.76;87.69;101375.44;4989546;28;20238;-80
2023/03/29 03:46:18;;;;;;;4.22;2.25;;;;;;;5.75;88.14;101367.41;4974247;28;20039;-81
2023/03/29 03:48:45;;;;;;;4.10;2.85;;;;;;;5.77;87.84;101376.31;4988413;28;20053;-81
2023/03/29 03:51:17;;;;;;;6.60;2.60;;;;;;;5.74;87.45;101362.97;4969531;28;20047;-81
2023/03/29 03:53:43;;;;;;;3.40;2.40;;;;;;;5.80;87.29;101378.88;4954125;28;20042;-81
2023/03/29 03:56:12;;;;;;;5.13;3.05;;;;;;;5.79;87.47;101372.63;4984361;28;20038;-81
2023/03/29 03:58:56;;;;;;;4.88;2.40;;;;;;;5.79;87.34;101364.53;4990838;28;20095;-81
2023/03/29 04:01:22;;;;;;;6.60;3.05;;;;;;;5.79;86.92;101369.91;4989530;28;20137;-81
2023/03/29 04:03:58;;;;;;;5.35;2.47;;;;;;;5.82;87.01;101371.59;4961551;28;20133;-81
2023/03/29 04:06:24;;;;;;;5.05;2.55;;;;;;;5.82;87.35;101375.16;5000628;28;20208;-81
2023/03/29 04:09:08;;;;;;;4.18;2.83;;;;;;;5.79;86.99;101367.22;5014890;28;20087;-80
2023/03/29 04:11:40;;;;;;;3.05;2.33;;;;;;;5.81;87.12;101356.34;5000161;28;20034;-81
2023/03/29 04:14:06;;;;;;;5.82;2.70;;;;;;;5.79;87.18;101351.03;4992891;28;20390;-81
2023/03/29 04:16:54;;;;;;;5.32;2.38;;;;;;;5.81;87.01;101356.34;4993982;28;20096;-81
2023/03/29 04:19:46;;;;;;;5.00;3.20;;;;;;;5.82;87.90;101352.69;5002915;28;20104;-81
2023/03/29 04:22:12;;;;;;;7.18;2.90;;;;;;;5.80;86.83;101349.19;4992096;28;20030;-80
2023/03/29 04:24:37;;;;;;;4.40;2.90;;;;;;;5.80;87.34;101347.38;4976038;28;20045;-80
2023/03/29 04:27:23;;;;;;;3.75;2.58;;;;;;;5.84;86.85;101346.28;5004915;28;20042;-81
2023/03/29 04:29:48;;;;;;;6.40;2.47;;;;;;;5.82;86.72;101347.28;5011574;28;20037;-81
2023/03/29 04:32:22;;;;;;;9.52;2.70;;;;;;;5.83;86.76;101349.06;4994763;28;20030;-81
2023/03/29 04:34:56;;;;;;;5.28;2.50;;;;;;;5.83;87.33;101349.06;5001133;28;20533;-81
2023/03/29 04:37:22;;;;;;;6.93;2.92;;;;;;;5.83;87.55;101341.84;4993151;28;20062;-80
2023/03/29 04:39:51;;;;;;;4.32;2.58;;;;;;;5.83;87.65;101339.13;4991693;28;20042;-81
2023/03/29 04:42:17;;;;;;;4.45;2.78;;;;;;;5.86;87.05;101343.50;4994020;28;20083;-81
2023/03/29 04:44:45;;;;;;;4.28;2.80;;;;;;;5.83;87.60;101338.25;5008916;28;20577;-81
2023/03/29 04:47:14;;;;;;;5.47;2.42;;;;;;;5.86;87.78;101346.22;4980734;28;20029;-80
2023/03/29 04:49:47;;;;;;;;;;;;;;;5.91;87.02;101348.69;4986504;28;20069;-81
2023/03/29 04:52:20;;;;;;;5.95;2.38;;;;;;;5.88;87.13;101344.34;4991282;28;20009;-81
2023/03/29 04:54:46;;;;;;;6.40;3.35;;;;;;;5.91;87.06;101341.47;4992777;28;20022;-80
2023/03/29 04:57:34;;;;;;;4.88;2.90;;;;;;;5.91;86.71;101327.97;4992027;28;20089;-81
2023/03/29 05:00:13;;;;;;;4.45;2.72;;;;;;;5.93;87.18;101328.84;4989646;28;20031;-81
2023/03/29 05:03:06;;;;;;;4.70;2.50;;;;;;;5.97;87.42;101330.44;4994076;28;20080;-81
2023/03/29 05:05:35;;;;;;;5.03;2.80;;;;;;;5.94;85.98;101327.00;4991795;28;20030;-81
2023/03/29 05:08:02;;;;;;;8.85;3.28;;;;;;;5.97;86.66;101330.44;4981111;28;20027;-81
2023/03/29 05:10:36;;;;;;;4.20;2.70;;;;;;;6.01;86.71;101323.94;4978037;28;20034;-81
2023/03/29 05:13:02;;;;;;;5.53;2.60;;;;;;;5.97;86.85;101318.75;4985450;28;20034;-81
2023/03/29 05:15:30;;;;;;;4.45;3.15;;;;;;;6.01;86.91;101323.06;4974002;28;20038;-81
2023/03/29 05:17:57;;;;;;;5.43;3.30;;;;;;;6.03;87.33;101324.75;4989717;28;20522;-81
2023/03/29 05:20:23;;;;;;;2.92;2.50;;;;;;;6.02;87.47;101314.91;4989605;28;20117;-80
2023/03/29 05:22:49;;;;;;;5.68;2.58;;;;;;;6.03;87.53;101319.34;4974427;28;20088;-81
2023/03/29 05:25:37;;;;;;;5.15;2.95;;;;;;;6.08;87.29;101325.41;5001913;28;20049;-81
2023/03/29 05:28:02;;;;;;;4.43;3.58;;;;;;;6.10;87.14;101317.25;4993047;28;20030;-81
2023/03/29 05:30:28;;;;;;;5.40;2.90;;;;;;;6.11;86.82;101319.88;4993572;28;20068;-81
2023/03/29 05:33:01;;;;;;;5.95;2.95;;;;;;;6.19;86.84;101329.44;4981867;28;20375;-81
2023/03/29 05:35:28;;;;;;;6.82;3.30;;;;;;;6.22;86.16;101337.41;4988289;28;20526;-81
2023/03/29 05:37:55;;;;;;;8.02;3.22;;;;;;;6.23;85.78;101340.03;4970503;28;20130;-81
2023/03/29 05:40:21;;;;;;;5.90;3.67;;;;;;;6.27;86.83;101341.66;4985384;28;20565;-81
2023/03/29 05:43:06;;;;;;;8.98;3.00;;;;;;;6.30;86.93;101340.66;4972144;28;20035;-81
2023/03/29 05:45:32;;;;;;;6.82;3.08;;;;;;;6.31;87.01;101339.69;5012784;28;20037;-81
2023/03/29 05:47:59;;;;;;;5.60;2.75;;;;;;;6.33;86.22;101338.66;4996221;28;20038;-80
2023/03/29 05:50:24;;;;;;;8.05;3.25;;;;;;;6.34;86.67;101329.63;4971829;28;20442;-81
2023/03/29 05:52:50;;;;;;;4.50;3.03;;;;;;;6.41;86.27;101334.72;4988834;28;20038;-80
2023/03/29 05:55:17;;;;;;;4.78;3.15;;;;;;;6.43;87.07;101335.50;4972460;28;20092;-81
2023/03/29 05:57:42;;;;;;;5.88;3.20;;;;;;;6.46;87.08;101335.38;4988112;28;20493;-81
2023/03/29 06:00:20;;;;;;;6.97;3.30;;;;;;;6.48;86.58;101341.59;4972329;28;20128;-81
2023/03/29 06:02:46;;;;;;;6.43;3.70;;;;;;;6.52;86.79;101333.25;4972900;28;20030;-81
2023/03/29 06:05:12;;;;;;;6.80;3.00;;;;;;;6.56;86.78;101344.81;4988351;28;20450;-80
2023/03/29 06:07:52;;;;;;;5.63;3.30;;;;;;;6.62;87.03;101349.91;4989295;28;20462;-80
2023/03/29 06:11:01;;;;;;;8.25;3.38;;;;;;;6.65;86.69;101350.66;4966497;28;20050;-80
2023/03/29 06:13:46;;;;;;;5.30;3.28;;;;;;;6.69;86.50;101339.69;4997988;28;20108;-80
2023/03/29 06:16:12;;;;;;;7.22;3.53;;;;;;;6.75;86.45;101345.66;5006833;28;20485;-81
2023/03/29 06:18:39;;;;;;;5.65;2.95;;;;;;;6.76;86.46;101346.53;4969207;28;20130;-80
2023/03/29 06:21:05;;;;;;;7.18;3.17;;;;;;;6.80;86.31;101350.84;5005803;28;20056;-81
2023/03/29 06:23:31;;;;;;;13.60;3.70;;;;;;;6.85;86.62;101355.09;4991555;28;20038;-80
2023/03/29 06:25:56;;;;;;;8.82;3.78;;;;;;;6.89;86.21;101356.69;4978453;28;20040;-81
2023/03/29 06:28:24;;;;;;;5.43;3.40;;;;;;;6.89;86.05;101353.09;4987828;28;20133;-80
2023/03/29 06:30:52;;;;;;;6.97;3.47;;;;;;;6.95;86.67;101358.25;4972202;28;20859;-80
2023/03/29 06:33:17;;;;;;;7.97;3.53;;;;;;;6.97;86.36;101352.75;4987863;28;20042;-81
2023/03/29 06:36:10;;;;;;;7.93;3.40;;;;;;;7.04;86.32;101349.66;4987855;28;20028;-80
2023/03/29 06:38:36;;;;;;;9.57;3.30;;;;;;;7.08;86.25;101351.25;4987781;28;20034;-80
2023/03/29 06:41:31;;;;;;;7.03;3.45;;;;;;;7.12;86.74;101352.84;4951916;28;20467;-81
2023/03/29 06:44:05;;;;;;;6.10;3.42;;;;;;;7.15;86.84;101341.88;4988326;28;20065;-81
2023/03/29 06:46:36;;;;;;;6.25;3.47;;;;;;;7.21;85.84;101339.81;4987333;28;20034;-80
2023/03/29 06:49:05;;;;;;;8.02;3.17;;;;;;;7.27;86.50;101337.66;4983825;28;20065;-80
2023/03/29 06:51:47;;;;;;;7.07;3.80;;;;;;;7.30;86.73;101333.94;5006739;28;20050;-81
2023/03/29 06:54:13;;;;;;;8.55;3.33;;;;;;;7.41;86.25;101339.66;5007078;28;20056;-80
2023/03/29 06:56:47;;;;;;;5.68;3.60;;;;;;;7.50;85.93;101350.03;5005097;28;20073;-80
2023/03/29 06:59:15;;;;;;;6.00;3.20;;;;;;;7.55;86.46;101349.78;5005995;28;20121;-80
2023/03/29 07:02:01;;;;;;;9.38;3.03;;;;;;;7.63;86.92;101345.72;4992946;28;20034;-81
2023/03/29 07:04:46;;;;;;;7.32;3.25;;;;;;;7.75;87.27;101354.19;4987128;28;20483;-80
2023/03/29 07:07:26;;;;;;;6.82;3.58;;;;;;;7.81;86.41;101352.00;5001135;28;20026;-81
2023/03/29 07:10:03;;;;;;;7.32;4.07;;;;;;;7.88;86.06;101367.00;5007115;28;20033;-80
2023/03/29 07:13:05;;;;;;;4.75;3.47;;;;;;;7.90;85.80;101359.66;4969686;28;20042;-81
2023/03/29 07:15:32;;;;;;;10.07;3.70;;;;;;;7.93;85.80;101354.09;4969928;28;20057;-80
2023/03/29 07:18:17;;;;;;;9.90;3.60;;;;;;;7.95;85.96;101354.00;4978733;28;20038;-80
2023/03/29 07:20:43;;;;;;;10.38;3.50;;;;;;;8.01;85.64;101360.91;4986789;28;20386;-81
2023/03/29 07:23:10;;;;;;;8.40;3.47;;;;;;;8.05;85.91;101357.06;4987265;28;20049;-80
2023/03/29 07:25:36;;;;;;;8.80;3.67;;;;;;;8.08;85.57;101357.78;4986439;28;20023;-80
2023/03/29 07:28:02;;;;;;;8.15;4.53;;;;;;;8.09;85.39;101355.97;4987186;28;20375;-80
2023/03/29 07:30:29;;;;;;;8.02;3.70;;;;;;;8.14;85.16;101373.72;4987220;28;20453;-81
2023/03/29 07:33:05;;;;;;;5.82;3.65;;;;;;;8.14;85.69;101364.72;4987319;28;20383;-81
2023/03/29 07:35:38;;;;;;;6.05;3.65;;;;;;;8.20;85.71;101372.50;4986875;28;20034;-81
2023/03/29 07:38:07;;;;;;;8.35;4.15;;;;;;;8.25;85.91;101374.97;4993881;28;20428;-80
2023/03/29 07:40:33;;;;;;;7.25;4.15;;;;;;;8.28;86.41;101391.06;4993063;28;20037;-80
2023/03/29 07:42:58;;;;;;;7.60;5.03;;;;;;;8.29;85.67;101399.09;4994717;28;20046;-80
2023/03/29 07:45:27;;;;;;;8.75;4.00;;;;;;;8.32;85.34;101395.38;4993448;28;20355;-81
2023/03/29 07:48:07;;;;;;;7.32;3.60;;;;;;;8.31;85.72;101385.50;4992711;28;20483;-81
2023/03/29 07:50:55;;;;;;;7.20;3.80;;;;;;;8.34;85.48;101394.31;4992666;28;20629;-80
2023/03/29 07:53:28;;;;;;;6.88;3.55;;;;;;;8.36;85.10;101397.88;4993602;28;20532;-80
2023/03/29 07:55:55;;;;;;;5.22;3.90;;;;;;;8.38;85.53;101397.78;5000570;28;20092;-80
2023/03/29 07:58:47;;;;;;;6.03;4.10;;;;;;;8.40;87.14;101390.44;4998562;28;20133;-81
2023/03/29 08:01:14;;;;;;;7.63;3.60;;;;;;;8.43;86.90;101390.25;4996771;28;20654;-80
2023/03/29 08:04:03;;;;;;;7.03;4.10;;;;;;;8.41;87.84;101387.66;5012758;28;20076;-80
2023/03/29 08:06:53;;;;;;;7.95;3.80;;;;;;;8.48;87.99;101390.88;4974746;28;20038;-80
2023/03/29 08:09:20;;;;;;;9.23;4.57;;;;;;;8.53;88.84;101391.50;4993345;28;20680;-81
2023/03/29 08:11:45;;;;;;;6.25;4.25;;;;;;;8.57;88.50;101390.38;4996234;28;20034;-80
2023/03/29 08:14:20;;;;;;;9.27;4.10;;;;;;;8.65;88.91;101390.84;5012588;28;20034;-79
2023/03/29 08:16:53;;;;;;;10.32;3.97;;;;;;;8.66;88.73;101383.56;4993634;28;20061;-80
2023/03/29 08:19:19;;;;;;;12.68;4.43;;;;;;;8.69;89.89;101388.84;4995910;28;20030;-80
2023/03/29 08:22:14;;;;;;;9.60;4.63;;;;;;;8.81;89.99;101392.69;5009544;28;20037;-80
2023/03/29 08:25:15;;;;;;;11.02;4.85;;;;;;;8.90;89.61;101382.19;4991406;28;20045;-80
2023/03/29 08:27:45;;;;;;;9.52;4.07;;;;;;;8.99;89.07;101375.34;4990091;28;20153;-81
2023/03/29 08:30:13;;;;;;;10.68;5.20;;;;;;;9.10;89.13;101370.19;4977829;28;20379;-80
2023/03/29 08:32:40;;;;;;;8.73;5.05;;;;;;;9.20;87.80;101367.81;4994876;28;20028;-80
2023/03/29 08:35:08;;;;;;;8.07;4.63;;;;;;;9.32;88.83;101363.50;5012522;28;20034;-81
2023/03/29 08:37:48;;;;;;;10.35;4.75;;;;;;;9.52;88.44;101367.78;5012470;28;20045;-80
2023/03/29 08:40:20;;;;;;;9.45;4.85;;;;;;;9.62;88.84;101360.81;4979379;28;20069;-80
2023/03/29 08:43:19;;;;;;;11.13;5.85;;;;;;;9.79;88.25;101365.22;4973443;28;20042;-81
2023/03/29 08:46:12;;;;;;;;;;;;;;;9.86;87.56;101355.72;4993442;28;20038;-80
2023/03/29 08:48:43;;;;;;;8.20;4.68;;;;;;;9.92;87.95;101361.66;4973545;28;19992;-81
2023/03/29 08:51:32;;;;;;;9.90;4.77;;;;;;;10.05;87.76;101367.22;4973178;28;20049;-80
2023/03/29 08:54:25;;;;;;;8.15;4.22;;;;;;;10.17;87.25;101357.44;4989624;28;20042;-81
2023/03/29 08:57:27;;;;;;;9.50;4.85;;;;;;;10.33;86.58;101360.09;4981122;28;20065;-81
2023/03/29 09:00:00;;;;;;;9.43;5.40;;;;;;;10.45;87.55;101368.34;4974697;28;20768;-80
2023/03/29 09:02:30;;;;;;;11.55;4.95;;;;;;;10.50;86.68;101351.72;4988103;28;20113;-81
2023/03/29 09:05:07;;;;;;;9.32;5.15;;;;;;;10.65;85.44;101358.91;4990010;28;20074;-80
2023/03/29 09:07:42;;;;;;;10.30;5.63;;;;;;;10.78;87.17;101356.25;4974614;28;20459;-80
2023/03/29 09:10:14;;;;;;;10.52;5.22;;;;;;;10.86;86.12;101358.47;4998080;28;20049;-81
2023/03/29 09:12:52;;;;;;;9.65;4.85;;;;;;;10.91;85.48;101350.88;4990150;28;20355;-80
2023/03/29 09:15:27;;;;;;;10.88;5.00;;;;;;;10.86;85.91;101340.28;4990563;28;20460;-81
2023/03/29 09:18:41;;;;;;;10.07;4.90;;;;;;;10.93;85.80;101363.41;4990756;28;20049;-81
2023/03/29 09:21:25;;;;;;;12.55;4.90;;;;;;;10.98;85.47;101369.44;5005717;28;20137;-80
2023/03/29 09:24:09;;;;;;;10.55;4.53;;;;;;;11.03;85.99;101357.38;4992833;28;20427;-81
2023/03/29 09:26:59;;;;;;;13.35;5.60;;;;;;;11.06;85.23;101360.78;4987904;28;20035;-81
2023/03/29 09:29:29;;;;;;;11.27;5.13;;;;;;;11.10;85.71;101364.16;4990954;28;20039;-81
2023/03/29 09:31:55;;;;;;;9.40;4.93;;;;;;;11.05;84.96;101371.75;4990310;28;20383;-81
2023/03/29 09:34:30;;;;;;;9.15;4.70;;;;;;;11.05;85.44;101360.84;5004763;28;20443;-80
2023/03/29 09:37:21;;;;;;;10.13;5.95;;;;;;;11.05;86.51;101367.19;4988925;28;20027;-80
2023/03/29 09:39:48;;;;;;;8.05;4.13;;;;;;;11.15;86.55;101367.47;4988774;28;20041;-80
2023/03/29 09:42:16;;;;;;;12.40;5.07;;;;;;;11.18;85.90;101367.22;4989866;28;20374;-80
2023/03/29 09:44:56;;;;;;;12.32;5.38;;;;;;;11.22;86.42;101363.34;5008758;28;20060;-81
2023/03/29 09:47:34;;;;;;;8.18;5.00;;;;;;;11.05;86.43;101360.84;4999379;28;20467;-81
2023/03/29 09:50:12;;;;;;;10.32;5.47;;;;;;;10.99;87.30;101356.69;4986869;28;20058;-80
2023/03/29 09:52:38;;;;;;;14.25;5.88;;;;;;;11.04;88.02;101365.41;4990398;28;20133;-80
2023/03/29 09:55:14;;;;;;;13.02;6.20;;;;;;;11.06;87.10;101365.34;4987875;28;20482;-80
2023/03/29 09:58:16;;;;;;;9.90;5.25;;;;;;;11.11;88.13;101368.63;4989252;28;20130;-80
2023/03/29 10:00:47;;;;;;;11.13;5.82;;;;;;;11.06;87.93;101368.94;4972342;28;20104;-80
2023/03/29 10:03:29;;;;;;;9.63;5.43;;;;;;;10.99;87.18;101376.63;4988269;28;20668;-80
2023/03/29 10:06:10;;;;;;;10.48;5.68;;;;;;;10.87;88.37;101368.41;4987695;28;20045;-81
2023/03/29 10:08:39;;;;;;;11.77;6.47;;;;;;;10.81;88.40;101364.22;4988331;28;20173;-80
2023/03/29 10:11:11;;;;;;;9.73;5.55;;;;;;;10.78;88.58;101360.84;4970991;28;20046;-80
2023/03/29 10:13:44;;;;;;;13.48;5.82;;;;;;;10.81;89.67;101368.78;4988856;28;20104;-80
2023/03/29 10:16:19;;;;;;;9.80;5.93;;;;;;;10.90;89.98;101368.19;4987502;28;20125;-80
2023/03/29 10:18:46;;;;;;;12.15;5.78;;;;;;;10.84;89.30;101358.56;4988085;28;20038;-80
2023/03/29 10:21:19;;;;;;;9.50;5.38;;;;;;;10.86;91.94;101359.34;4987941;28;20066;-80
2023/03/29 10:23:44;;;;;;;12.50;6.78;;;;;;;10.92;91.67;101358.09;4989293;28;20038;-81
2023/03/29 10:26:26;;;;;;;11.77;6.72;;;;;;;10.79;91.28;101358.00;4970680;28;20042;-81
2023/03/29 10:28:55;;;;;;;13.23;5.70;;;;;;;10.69;91.78;101355.00;4988087;28;20072;-80
2023/03/29 10:31:22;;;;;;;12.35;6.00;;;;;;;10.70;92.07;101342.28;4989275;28;20088;-80
2023/03/29 10:33:56;;;;;;;12.13;6.10;;;;;;;10.80;91.73;101339.81;4987615;28;20049;-80
2023/03/29 10:36:25;;;;;;;10.40;5.65;;;;;;;10.86;91.42;101342.13;5000342;28;20134;-81
2023/03/29 10:38:53;;;;;;;10.60;5.75;;;;;;;10.94;93.07;101335.22;4952219;28;20046;-80
2023/03/29 10:41:20;;;;;;;8.73;6.32;;;;;;;11.13;92.51;101336.72;4973784;28;20085;-81
2023/03/29 10:43:49;;;;;;;12.02;5.85;;;;;;;11.29;91.33;101339.28;4987742;28;20518;-80
2023/03/29 10:46:38;;;;;;;13.00;6.40;;;;;;;11.56;91.07;101341.97;4988479;28;20038;-81
2023/03/29 10:49:14;;;;;;;9.63;6.00;;;;;;;11.92;92.04;101327.69;5004575;28;20034;-81
2023/03/29 10:51:44;;;;;;;11.43;6.72;;;;;;;12.22;90.01;101320.06;4971055;28;20058;-80
2023/03/29 10:54:13;;;;;;;8.55;5.50;;;;;;;12.54;88.59;101303.19;4989408;28;20117;-80
2023/03/29 10:56:42;;;;;;;13.18;5.68;;;;;;;12.86;86.38;101300.78;4976870;28;20034;-80
2023/03/29 10:59:17;;;;;;;12.35;5.68;;;;;;;13.22;87.84;101299.03;4971736;28;20498;-81
2023/03/29 11:02:21;;;;;;;8.73;5.15;;;;;;;13.40;84.43;101292.16;4987149;28;20037;-81
2023/03/29 11:05:09;;;;;;;8.02;5.45;;;;;;;13.61;82.08;101294.22;5001803;28;20042;-80
2023/03/29 11:08:00;;;;;;;8.82;5.10;;;;;;;13.67;80.22;101288.28;4979169;28;20054;-81
2023/03/29 11:10:34;;;;;;;11.30;4.78;;;;;;;13.91;81.89;101282.75;4990649;28;20038;-80
2023/03/29 11:13:26;;;;;;;8.82;5.22;;;;;;;14.19;81.23;101278.66;4983885;28;20398;-81
2023/03/29 11:16:28;;;;;;;11.43;4.97;;;;;;;14.39;80.83;101285.25;4969397;28;20035;-80
2023/03/29 11:19:16;;;;;;;8.70;4.35;;;;;;;14.57;78.58;101286.50;5005900;28;20057;-81
2023/03/29 11:22:05;;;;;;;12.07;4.93;;;;;;;14.90;78.42;101271.88;4993944;28;20080;-81
2023/03/29 11:24:50;;;;;;;8.25;4.80;;;;;;;14.94;78.30;101262.41;5005554;28;20121;-81
2023/03/29 11:27:22;;;;;;;10.18;5.13;;;;;;;15.13;77.86;101275.44;4993265;28;20038;-80
2023/03/29 11:30:02;;;;;;;7.53;5.00;;;;;;;15.43;75.86;101277.41;4990358;28;20129;-81
2023/03/29 11:32:39;;;;;;;9.88;5.28;;;;;;;15.54;74.62;101277.38;4999834;28;20469;-81
2023/03/29 11:35:31;;;;;;;10.68;4.43;;;;;;;15.44;74.38;101292.00;4985708;28;20405;-82
2023/03/29 11:38:24;;;;;;;11.35;4.45;;;;;;;15.29;73.41;101297.81;4990452;28;20050;-81
2023/03/29 11:40:56;;;;;;;7.25;4.57;;;;;;;15.13;74.68;101291.88;5006084;28;20512;-80
2023/03/29 11:43:28;;;;;;;8.73;4.57;;;;;;;15.11;73.39;101284.75;5007849;28;20038;-80
2023/03/29 11:46:02;;;;;;;7.32;5.07;;;;;;;15.18;75.24;101284.13;4990377;28;20029;-81
2023/03/29 11:48:36;;;;;;;6.75;4.72;;;;;;;15.52;76.80;101287.59;4991407;28;20100;-80
2023/03/29 11:51:16;;;;;;;9.27;4.47;;;;;;;15.70;72.43;101281.53;4988283;28;20630;-81
2023/03/29 11:53:52;;;;;;;8.98;4.85;;;;;;;15.65;72.32;101281.94;4970847;28;20125;-81
2023/03/29 11:56:25;;;;;;;8.82;5.03;;;;;;;15.48;71.33;101263.28;4987685;28;20037;-81
2023/03/29 11:58:58;;;;;;;7.40;4.55;;;;;;;15.48;71.33;101260.56;4988848;28;20081;-81
2023/03/29 12:01:33;;;;;;;8.57;4.60;;;;;;;15.68;73.84;101258.88;4988540;28;20133;-80